createdAt,value
2019-05-23T00:00:33.916Z,37.80
2019-05-23T00:04:22.857Z,37.90
2019-05-23T00:08:11.881Z,40.43
2019-05-23T00:11:46.745Z,37.63
2019-05-23T00:15:22.581Z,38.73
2019-05-23T00:18:48.687Z,41.87
2019-05-23T00:22:14.578Z,41.37
2019-05-23T00:25:39.994Z,47.60
2019-05-23T00:29:09.928Z,40.90
2019-05-23T00:32:47.195Z,43.73
2019-05-23T00:36:12.869Z,44.70
2019-05-23T00:39:37.591Z,39.93
2019-05-23T00:43:03.222Z,41.00
2019-05-23T00:46:28.947Z,41.43
2019-05-23T00:49:52.955Z,43.07
2019-05-23T00:53:18.105Z,43.63
2019-05-23T00:56:42.679Z,39.23
2019-05-23T01:00:08.479Z,42.87
2019-05-23T01:03:33.410Z,43.07
2019-05-23T01:06:59.008Z,44.90
2019-05-23T01:10:24.093Z,46.17
2019-05-23T01:13:48.741Z,44.73
2019-05-23T01:17:20.591Z,41.67
2019-05-23T01:21:03.230Z,42.63
2019-05-23T01:24:34.263Z,39.73
2019-05-23T01:27:59.373Z,42.30
2019-05-23T01:31:29.293Z,42.27
2019-05-23T01:34:55.004Z,46.87
2019-05-23T01:38:20.604Z,40.27
2019-05-23T01:41:46.112Z,41.87
2019-05-23T01:45:12.047Z,42.23
2019-05-23T01:48:37.524Z,46.03
2019-05-23T01:52:01.620Z,47.37
2019-05-23T01:55:25.956Z,44.43
2019-05-23T01:58:50.196Z,42.03
2019-05-23T02:02:16.113Z,42.30
2019-05-23T02:05:40.995Z,45.47
2019-05-23T02:09:08.977Z,40.70
2019-05-23T02:12:33.707Z,39.93
2019-05-23T02:15:58.596Z,41.50
2019-05-23T02:19:23.666Z,37.93
2019-05-23T02:22:49.124Z,45.40
2019-05-23T02:26:14.297Z,44.17
2019-05-23T02:29:38.650Z,43.43
2019-05-23T02:33:03.523Z,43.53
2019-05-23T02:36:27.844Z,44.27
2019-05-23T02:39:58.887Z,45.43
2019-05-23T02:43:23.986Z,43.77
2019-05-23T02:46:59.406Z,41.17
2019-05-23T02:50:40.223Z,39.63
2019-05-23T02:54:06.765Z,43.33
2019-05-23T02:57:33.573Z,40.23
2019-05-23T03:01:34.307Z,40.57
2019-05-23T03:05:02.713Z,45.43
2019-05-23T03:08:29.190Z,41.77
2019-05-23T03:11:59.173Z,41.27
2019-05-23T03:15:24.998Z,37.90
2019-05-23T03:18:57.793Z,43.17
2019-05-23T03:22:50.993Z,44.13
2019-05-23T03:26:59.717Z,44.63
2019-05-23T03:30:28.663Z,43.73
2019-05-23T03:33:54.279Z,46.23
2019-05-23T03:37:19.965Z,44.63
2019-05-23T03:40:44.007Z,42.47
2019-05-23T03:44:11.270Z,45.97
2019-05-23T03:47:36.603Z,43.03
2019-05-23T03:51:02.430Z,45.57
2019-05-23T03:54:27.134Z,43.73
2019-05-23T03:57:52.308Z,45.87
2019-05-23T04:01:18.387Z,44.57
2019-05-23T04:04:42.178Z,45.77
2019-05-23T04:08:06.657Z,50.63
2019-05-23T04:11:30.012Z,46.67
2019-05-23T04:14:53.683Z,42.90
2019-05-23T04:18:16.886Z,46.40
2019-05-23T04:21:40.333Z,46.10
2019-05-23T04:25:04.913Z,42.50
2019-05-23T04:28:29.181Z,47.20
2019-05-23T04:32:07.126Z,41.80
2019-05-23T04:35:17.826Z,42.93
2019-05-23T04:38:41.194Z,43.70
2019-05-23T04:42:06.392Z,45.37
2019-05-23T04:45:30.699Z,44.27
2019-05-23T04:48:53.966Z,44.87
2019-05-23T04:52:17.153Z,52.67
2019-05-23T04:55:41.611Z,47.27
2019-05-23T04:59:05.563Z,54.13
2019-05-23T05:02:31.048Z,43.53
2019-05-23T05:05:54.345Z,43.73
2019-05-23T05:09:28.881Z,41.10
2019-05-23T05:13:01.926Z,41.03
2019-05-23T05:16:25.760Z,47.67
2019-05-23T05:19:49.364Z,46.67
2019-05-23T05:23:13.086Z,44.43
2019-05-23T05:26:36.173Z,48.87
2019-05-23T05:29:59.276Z,45.37
2019-05-23T05:33:22.389Z,52.50
2019-05-23T05:36:45.948Z,43.03
2019-05-23T05:40:09.462Z,57.13
2019-05-23T05:43:32.741Z,51.33
2019-05-23T05:46:56.207Z,46.00
2019-05-23T05:50:21.658Z,48.50
2019-05-23T05:53:45.035Z,48.53
2019-05-23T05:57:08.172Z,43.03
2019-05-23T06:00:53.889Z,49.93
2019-05-23T06:04:18.948Z,48.27
2019-05-23T06:07:42.906Z,49.73
2019-05-23T06:11:06.351Z,47.83
2019-05-23T06:14:29.755Z,47.40
2019-05-23T06:17:53.364Z,48.43
2019-05-23T06:21:21.993Z,55.07
2019-05-23T06:24:51.730Z,47.93
2019-05-23T06:28:13.495Z,48.47
2019-05-23T06:31:38.425Z,47.37
2019-05-23T06:35:01.613Z,46.30
2019-05-23T06:38:25.252Z,57.57
2019-05-23T06:41:49.311Z,53.20
2019-05-23T06:45:13.444Z,49.40
2019-05-23T06:48:36.928Z,52.60
2019-05-23T06:52:00.351Z,57.90
2019-05-23T06:55:23.544Z,54.20
2019-05-23T06:58:46.650Z,58.50
2019-05-23T07:02:14.525Z,55.37
2019-05-23T07:05:38.660Z,59.40
2019-05-23T07:09:02.203Z,54.43
2019-05-23T07:12:25.565Z,59.13
2019-05-23T07:15:49.213Z,66.97
2019-05-23T07:19:14.263Z,59.00
2019-05-23T07:22:38.195Z,65.67
2019-05-23T07:26:03.970Z,61.50
2019-05-23T07:29:27.088Z,60.23
2019-05-23T07:32:50.349Z,64.37
2019-05-23T07:36:13.647Z,66.47
2019-05-23T07:39:36.865Z,65.85
2019-05-23T07:43:00.348Z,62.23
2019-05-23T07:46:23.840Z,60.05
2019-05-23T07:49:46.981Z,60.55
2019-05-23T07:53:13.245Z,54.88
2019-05-23T07:56:37.401Z,59.03
2019-05-23T08:00:02.786Z,52.45
2019-05-23T08:03:29.266Z,49.18
2019-05-23T08:06:53.785Z,54.13
2019-05-23T08:10:32.513Z,47.13
2019-05-23T08:13:43.806Z,45.15
2019-05-23T08:17:08.084Z,43.73
2019-05-23T08:20:31.388Z,42.17
2019-05-23T08:23:54.496Z,40.65
2019-05-23T08:27:17.937Z,46.37
2019-05-23T08:30:41.665Z,43.95
2019-05-23T08:34:06.811Z,39.88
2019-05-23T08:37:29.960Z,38.48
2019-05-23T08:40:54.010Z,43.33
2019-05-23T08:44:18.109Z,36.73
2019-05-23T08:47:41.632Z,32.08
2019-05-23T08:51:05.611Z,40.73
2019-05-23T08:54:29.343Z,36.13
2019-05-23T08:57:54.094Z,31.75
2019-05-23T09:01:18.203Z,39.90
2019-05-23T09:05:01.166Z,29.50
2019-05-23T09:08:08.925Z,25.60
2019-05-23T09:11:33.096Z,28.40
2019-05-23T09:14:56.176Z,28.92
2019-05-23T09:18:19.492Z,26.00
2019-05-23T09:21:42.770Z,25.25
2019-05-23T09:25:06.884Z,27.75
2019-05-23T09:28:30.055Z,27.05
2019-05-23T09:31:53.272Z,18.50
2019-05-23T09:35:21.327Z,16.52
2019-05-23T09:38:42.378Z,20.80
2019-05-23T09:42:05.484Z,16.62
2019-05-23T09:45:28.825Z,16.80
2019-05-23T09:48:51.985Z,15.32
2019-05-23T09:52:15.712Z,14.85
2019-05-23T09:55:39.029Z,14.65
2019-05-23T09:59:02.145Z,17.05
2019-05-23T10:02:27.291Z,14.60
2019-05-23T10:05:50.711Z,12.40
2019-05-23T10:09:14.093Z,14.03
2019-05-23T10:12:37.622Z,16.20
2019-05-23T10:16:08.350Z,16.80
2019-05-23T10:19:32.064Z,13.00
2019-05-23T10:22:55.485Z,12.43
2019-05-23T10:26:18.713Z,14.03
2019-05-23T10:29:41.906Z,11.63
2019-05-23T10:33:11.705Z,10.70
2019-05-23T10:36:30.376Z,9.08
2019-05-23T10:39:55.371Z,14.20
2019-05-23T10:43:19.086Z,12.45
2019-05-23T10:46:42.188Z,13.48
2019-05-23T10:50:08.180Z,12.75
2019-05-23T10:53:30.861Z,12.18
2019-05-23T10:56:54.073Z,11.95
2019-05-23T11:00:21.318Z,14.65
2019-05-23T11:03:44.506Z,12.28
2019-05-23T11:07:09.897Z,10.30
2019-05-23T11:10:33.619Z,11.65
2019-05-23T11:13:57.519Z,10.88
2019-05-23T11:17:20.852Z,15.10
2019-05-23T11:20:44.094Z,10.05
2019-05-23T11:24:08.154Z,11.85
2019-05-23T11:27:31.283Z,11.53
2019-05-23T11:30:56.993Z,13.55
2019-05-23T11:34:20.625Z,14.53
2019-05-23T11:37:43.882Z,11.93
2019-05-23T11:41:07.498Z,13.62
2019-05-23T11:44:30.725Z,12.70
2019-05-23T11:47:54.207Z,12.03
2019-05-23T11:51:18.441Z,12.63
2019-05-23T11:54:41.674Z,15.70
2019-05-23T11:58:05.833Z,10.85
2019-05-23T12:01:44.143Z,10.63
2019-05-23T12:05:11.386Z,10.03
2019-05-23T12:08:34.994Z,11.03
2019-05-23T12:11:58.112Z,7.80
2019-05-23T12:15:26.724Z,6.80
2019-05-23T12:18:51.145Z,7.53
2019-05-23T12:22:15.102Z,6.47
2019-05-23T12:25:40.288Z,8.15
2019-05-23T12:29:04.080Z,8.30
2019-05-23T12:32:27.477Z,8.43
2019-05-23T12:35:50.785Z,6.85
2019-05-23T12:39:14.212Z,5.00
2019-05-23T12:42:37.396Z,5.65
2019-05-23T12:46:00.563Z,6.17
2019-05-23T12:49:34.732Z,4.15
2019-05-23T12:52:58.209Z,5.20
2019-05-23T12:56:21.963Z,5.22
2019-05-23T12:59:45.358Z,5.47
2019-05-23T13:03:10.040Z,4.62
2019-05-23T13:06:33.331Z,4.45
2019-05-23T13:09:56.480Z,5.22
2019-05-23T13:13:19.563Z,4.60
2019-05-23T13:16:43.731Z,5.75
2019-05-23T13:20:07.216Z,4.90
2019-05-23T13:23:30.497Z,4.33
2019-05-23T13:26:53.708Z,5.20
2019-05-23T13:30:17.282Z,5.33
2019-05-23T13:33:40.679Z,4.72
2019-05-23T13:37:06.031Z,6.42
2019-05-23T13:40:29.470Z,5.15
2019-05-23T13:43:52.797Z,4.55
2019-05-23T13:47:16.029Z,5.10
2019-05-23T13:50:39.348Z,4.62
2019-05-23T13:54:02.626Z,7.40
2019-05-23T13:57:26.389Z,5.00
2019-05-23T14:00:49.684Z,3.37
2019-05-23T14:04:14.652Z,4.95
2019-05-23T14:07:37.949Z,5.95
2019-05-23T14:12:19.454Z,4.55
2019-05-23T14:15:17.990Z,4.22
2019-05-23T14:18:41.938Z,4.05
2019-05-23T14:22:05.527Z,4.60
2019-05-23T14:25:29.607Z,3.83
2019-05-23T14:28:52.860Z,4.85
2019-05-23T14:32:24.750Z,3.92
2019-05-23T14:35:48.451Z,3.83
2019-05-23T14:39:17.714Z,6.92
2019-05-23T14:43:05.059Z,3.83
2019-05-23T14:46:32.500Z,5.47
2019-05-23T14:50:06.205Z,4.28
2019-05-23T14:53:31.607Z,6.75
2019-05-23T14:56:55.145Z,3.90
2019-05-23T15:00:18.762Z,3.75
2019-05-23T15:03:42.030Z,3.72
2019-05-23T15:07:05.416Z,4.50
2019-05-23T15:10:28.889Z,3.58
2019-05-23T15:13:52.026Z,5.33
2019-05-23T15:17:15.715Z,3.47
2019-05-23T15:20:38.823Z,3.50
2019-05-23T15:24:01.999Z,5.37
2019-05-23T15:27:25.670Z,4.20
2019-05-23T15:30:48.826Z,10.70
2019-05-23T15:34:12.896Z,4.10
2019-05-23T15:37:36.457Z,4.72
2019-05-23T15:41:00.647Z,5.50
2019-05-23T15:44:28.621Z,3.55
2019-05-23T15:47:51.699Z,3.58
2019-05-23T15:51:19.699Z,10.32
2019-05-23T15:54:53.341Z,4.20
2019-05-23T15:58:38.909Z,6.92
2019-05-23T16:02:10.656Z,4.00
2019-05-23T16:05:33.887Z,5.58
2019-05-23T16:08:57.385Z,3.30
2019-05-23T16:12:21.227Z,2.87
2019-05-23T16:15:44.843Z,3.15
2019-05-23T16:19:08.134Z,4.20
2019-05-23T16:22:31.774Z,3.70
2019-05-23T16:25:55.014Z,3.62
2019-05-23T16:29:18.649Z,2.98
2019-05-23T16:32:41.767Z,3.20
2019-05-23T16:36:05.388Z,5.33
2019-05-23T16:39:44.145Z,3.40
2019-05-23T16:42:54.474Z,3.15
2019-05-23T16:46:17.895Z,3.10
2019-05-23T16:49:41.197Z,3.37
2019-05-23T16:53:04.491Z,4.35
2019-05-23T16:56:47.297Z,4.22
2019-05-23T17:00:39.164Z,4.05
2019-05-23T17:04:20.175Z,4.37
2019-05-23T17:08:18.197Z,4.17
2019-05-23T17:11:59.028Z,5.78
2019-05-23T17:15:48.390Z,5.97
2019-05-23T17:19:26.430Z,3.87
2019-05-23T17:23:05.315Z,6.20
2019-05-23T17:26:48.637Z,4.62
2019-05-23T17:30:26.119Z,5.58
2019-05-23T17:33:50.979Z,4.72
2019-05-23T17:37:14.985Z,4.97
2019-05-23T17:40:38.347Z,6.00
2019-05-23T17:44:02.042Z,4.40
2019-05-23T17:47:25.539Z,4.90
2019-05-23T17:50:49.091Z,4.62
2019-05-23T17:54:12.666Z,4.15
2019-05-23T17:57:39.101Z,4.33
2019-05-23T18:01:04.128Z,4.20
2019-05-23T18:04:28.530Z,4.95
2019-05-23T18:07:52.383Z,11.65
2019-05-23T18:11:16.238Z,6.67
2019-05-23T18:14:39.834Z,5.50
2019-05-23T18:18:03.675Z,4.78
2019-05-23T18:21:28.802Z,11.97
2019-05-23T18:24:52.405Z,8.23
2019-05-23T18:28:17.180Z,18.30
2019-05-23T18:31:42.209Z,7.92
2019-05-23T18:35:06.483Z,10.68
2019-05-23T18:38:29.869Z,9.55
2019-05-23T18:41:53.808Z,14.50
2019-05-23T18:45:18.278Z,5.15
2019-05-23T18:48:41.926Z,6.28
2019-05-23T18:52:05.707Z,6.60
2019-05-23T18:55:45.698Z,9.45
2019-05-23T18:59:35.577Z,6.33
2019-05-23T19:03:22.495Z,6.55
2019-05-23T19:07:02.826Z,11.33
2019-05-23T19:11:19.371Z,11.08
2019-05-23T19:14:52.536Z,3.35
2019-05-23T19:18:32.735Z,6.95
2019-05-23T19:22:39.327Z,2.98
2019-05-23T19:26:19.274Z,3.45
2019-05-23T19:30:04.520Z,3.98
2019-05-23T19:34:06.698Z,5.33
2019-05-23T19:37:46.217Z,3.42
2019-05-23T19:41:37.396Z,6.30
2019-05-23T19:45:25.650Z,3.65
2019-05-23T19:49:11.037Z,3.30
2019-05-23T19:53:02.738Z,3.22
2019-05-23T19:56:43.921Z,3.58
2019-05-23T20:00:40.502Z,2.98
2019-05-23T20:04:31.389Z,3.25
2019-05-23T20:08:43.403Z,2.70
2019-05-23T20:12:44.270Z,2.75
2019-05-23T20:16:31.860Z,3.00
2019-05-23T20:20:27.779Z,5.12
2019-05-23T20:23:55.210Z,4.12
2019-05-23T20:29:03.285Z,3.15
2019-05-23T20:33:52.701Z,5.80
2019-05-23T20:38:12.264Z,3.80
2019-05-23T20:42:09.982Z,3.20
2019-05-23T20:45:44.675Z,4.40
2019-05-23T20:49:47.670Z,4.15
2019-05-23T20:53:44.721Z,3.90
2019-05-23T20:57:32.377Z,4.05
2019-05-23T21:01:53.987Z,3.98
2019-05-23T21:05:42.239Z,3.67
2019-05-23T21:09:42.495Z,4.30
2019-05-23T21:14:10.265Z,4.15
2019-05-23T21:17:29.627Z,4.92
2019-05-23T21:21:13.476Z,4.95
2019-05-23T21:25:16.895Z,4.47
2019-05-23T21:29:10.674Z,4.80
2019-05-23T21:33:11.130Z,5.62
2019-05-23T21:36:56.488Z,5.25
2019-05-23T21:40:47.404Z,5.70
2019-05-23T21:44:26.745Z,5.85
2019-05-23T21:47:59.944Z,6.50
2019-05-23T21:51:35.230Z,7.47
2019-05-23T21:55:45.604Z,6.33
2019-05-23T21:59:23.477Z,9.25
2019-05-23T22:03:01.964Z,9.35
2019-05-23T22:06:55.955Z,9.65
2019-05-23T22:10:36.253Z,10.38
2019-05-23T22:14:51.206Z,10.80
2019-05-23T22:18:49.829Z,8.80
2019-05-23T22:22:53.135Z,8.25
2019-05-23T22:26:34.578Z,7.15
2019-05-23T22:30:33.888Z,6.95
2019-05-23T22:34:35.300Z,7.83
2019-05-23T22:38:11.348Z,10.20
2019-05-23T22:42:00.338Z,10.63
2019-05-23T22:45:46.874Z,8.23
2019-05-23T22:49:36.426Z,8.25
2019-05-23T22:53:02.978Z,8.35
2019-05-23T22:56:46.002Z,8.28
2019-05-23T23:00:40.809Z,8.83
2019-05-23T23:04:31.827Z,9.40
2019-05-23T23:08:14.991Z,8.93
2019-05-23T23:12:01.508Z,7.37
2019-05-23T23:15:43.781Z,7.90
2019-05-23T23:19:39.852Z,7.30
2019-05-23T23:23:24.991Z,8.23
2019-05-23T23:27:01.305Z,9.60
2019-05-23T23:30:44.644Z,7.30
2019-05-23T23:34:46.595Z,8.25
2019-05-23T23:38:25.961Z,7.42
2019-05-23T23:41:49.525Z,5.90
2019-05-23T23:45:30.514Z,8.23
2019-05-23T23:49:11.763Z,6.95
2019-05-23T23:52:52.893Z,7.50
2019-05-23T23:56:33.877Z,7.37
